Time;durP1;ratioP1;P1;durP2;ratioP2;P2;SDS_P1;SDS_P2;PMS_P1;PMS_P2;Temp;Humidity;BMP_temperature;BMP_pressure;BME280_temperature;BME280_humidity;BME280_pressure;Samples;Min_cycle;Max_cycle;Signal;HPM_P1;HPM_P2
2022/06/13 00:02:12;;;;;;;6.82;2.17;;;;;;;15.25;67.09;101212.22;6033358;28;20035;-66
2022/06/13 00:05:08;;;;;;;8.63;1.90;;;;;;;15.10;67.53;101193.31;6028679;28;20036;-67
2022/06/13 00:08:04;;;;;;;8.32;2.25;;;;;;;15.26;66.65;101204.06;6028540;28;20058;-67
2022/06/13 00:10:59;;;;;;;6.13;1.80;;;;;;;15.36;67.20;101198.53;6028429;28;20030;-67
2022/06/13 00:13:55;;;;;;;9.07;2.80;;;;;;;15.53;66.53;101202.09;6020374;28;20038;-67
2022/06/13 00:16:50;;;;;;;5.32;1.90;;;;;;;15.25;67.31;101197.03;6030748;28;20034;-68
2022/06/13 00:19:46;;;;;;;5.70;1.80;;;;;;;15.14;68.36;101194.66;6027473;28;20489;-67
2022/06/13 00:22:41;;;;;;;13.63;2.13;;;;;;;14.99;68.58;101196.31;6020970;28;20042;-67
2022/06/13 00:25:37;;;;;;;8.33;2.10;;;;;;;14.81;70.07;101204.41;6027310;28;20124;-67
2022/06/13 00:28:32;;;;;;;7.90;1.80;;;;;;;14.60;69.87;101205.81;6030069;28;20309;-67
2022/06/13 00:31:27;;;;;;;6.80;2.30;;;;;;;14.25;71.59;101207.63;6027314;28;20042;-67
2022/06/13 00:34:23;;;;;;;10.40;2.00;;;;;;;13.93;73.46;101202.06;6027506;28;20393;-67
2022/06/13 00:37:18;;;;;;;5.13;1.80;;;;;;;13.74;74.72;101204.91;6031029;28;20510;-67
2022/06/13 00:40:13;;;;;;;6.63;2.27;;;;;;;13.76;74.96;101202.94;6028103;28;20468;-67
2022/06/13 00:43:12;;;;;;;5.97;2.08;;;;;;;14.04;74.34;101204.47;6028975;28;20486;-67
2022/06/13 00:46:20;;;;;;;4.55;1.77;;;;;;;14.39;73.22;101208.06;6031909;28;20030;-67
2022/06/13 00:49:23;;;;;;;11.07;2.10;;;;;;;14.28;73.50;101201.13;6030421;28;20034;-67
2022/06/13 00:52:25;;;;;;;6.15;1.98;;;;;;;14.55;72.08;101197.47;6035451;28;20108;-67
2022/06/13 00:55:27;;;;;;;10.07;1.95;;;;;;;14.68;71.63;101203.19;6027148;28;20413;-67
2022/06/13 00:58:29;;;;;;;10.93;2.42;;;;;;;14.40;72.05;101199.06;6021614;28;20100;-67
2022/06/13 01:01:24;;;;;;;6.43;2.20;;;;;;;14.36;73.05;101197.69;6042756;28;20425;-67
2022/06/13 01:04:20;;;;;;;6.50;2.20;;;;;;;14.30;73.35;101197.31;6027930;28;20034;-67
2022/06/13 01:07:15;;;;;;;7.53;2.27;;;;;;;13.85;75.03;101207.34;6027320;28;20462;-67
2022/06/13 01:13:54;;;;;;;6.50;1.95;;;;;;;13.89;75.44;101215.88;6023536;28;20035;-67
2022/06/13 01:17:06;;;;;;;11.27;3.00;;;;;;;13.79;77.04;101213.28;6019362;28;20125;-67
2022/06/13 01:20:17;;;;;;;13.45;2.20;;;;;;;14.11;75.69;101210.84;6026040;28;20078;-68
2022/06/13 01:23:26;;;;;;;9.05;2.30;;;;;;;13.92;75.89;101205.72;6025802;28;20490;-67
2022/06/13 01:26:48;;;;;;;7.90;2.38;;;;;;;13.94;75.66;101214.38;6026424;28;20040;-67
2022/06/13 01:29:46;;;;;;;8.13;2.40;;;;;;;13.86;75.38;101217.00;6020592;28;20042;-67
2022/06/13 01:32:52;;;;;;;6.43;2.15;;;;;;;13.89;74.84;101206.03;6024378;28;20042;-67
2022/06/13 01:36:15;;;;;;;5.40;2.08;;;;;;;13.93;75.37;101212.72;6026392;28;20038;-67
2022/06/13 01:39:32;;;;;;;7.78;2.50;;;;;;;13.78;75.55;101208.94;6018236;28;20398;-67
2022/06/13 01:43:03;;;;;;;13.68;3.08;;;;;;;13.73;75.24;101211.22;6022816;28;20074;-67
2022/06/13 01:46:25;;;;;;;10.48;2.00;;;;;;;13.80;75.15;101211.47;5976049;28;20130;-67
2022/06/13 01:49:35;;;;;;;7.53;2.35;;;;;;;14.03;72.95;101197.47;6016162;28;20046;-67
2022/06/13 01:53:16;;;;;;;4.38;2.38;;;;;;;14.53;74.43;101188.78;6042020;28;20057;-67
2022/06/13 01:56:13;;;;;;;7.75;2.30;;;;;;;14.11;73.31;101194.00;5956866;29;20047;-67
2022/06/13 01:59:16;;;;;;;11.25;2.40;;;;;;;14.03;76.10;101185.94;5954255;29;20039;-68
2022/06/13 02:02:19;;;;;;;9.50;1.95;;;;;;;14.16;75.38;101189.03;6023523;28;20038;-67
2022/06/13 02:05:21;;;;;;;6.25;2.10;;;;;;;13.93;75.95;101186.06;6025510;28;20096;-68
2022/06/13 02:08:21;;;;;;;6.03;2.53;;;;;;;13.53;76.39;101185.75;6032305;28;20038;-67
2022/06/13 02:11:18;;;;;;;;;;;;;;;13.45;77.49;101188.34;6018051;28;20042;-67
2022/06/13 02:14:13;;;;;;;8.32;2.60;;;;;;;13.06;78.26;101188.59;6025739;28;19916;-67
2022/06/13 02:17:12;;;;;;;6.55;1.92;;;;;;;13.16;79.46;101190.38;6025888;28;20050;-67
2022/06/13 02:20:12;;;;;;;7.65;3.00;;;;;;;13.54;77.94;101174.09;6025709;28;20058;-67
2022/06/13 02:23:12;;;;;;;8.75;2.40;;;;;;;13.19;77.97;101176.75;6022010;28;20038;-67
2022/06/13 02:26:11;;;;;;;11.77;2.97;;;;;;;12.78;78.86;101176.28;6025509;28;20034;-67
2022/06/13 02:29:21;;;;;;;8.25;2.40;;;;;;;12.77;80.09;101181.78;6026348;28;20466;-67
2022/06/13 02:32:21;;;;;;;7.15;2.25;;;;;;;12.76;79.70;101172.94;6015864;28;20044;-67
2022/06/13 02:35:22;;;;;;;10.68;2.58;;;;;;;12.44;80.38;101185.84;6025676;28;20117;-67
2022/06/13 02:38:24;;;;;;;6.72;2.60;;;;;;;12.10;81.78;101187.34;6023666;28;20114;-67
2022/06/13 02:41:22;;;;;;;8.20;2.80;;;;;;;11.85;82.69;101196.78;6024075;28;20065;-67
2022/06/13 02:44:30;;;;;;;9.05;2.10;;;;;;;11.68;83.89;101198.34;6040894;28;20402;-67
2022/06/13 02:47:34;;;;;;;10.50;2.60;;;;;;;11.80;84.37;101202.53;6013957;28;20030;-67
2022/06/13 02:50:36;;;;;;;13.38;3.03;;;;;;;12.16;83.39;101195.59;6025753;28;20050;-66
2022/06/13 02:53:39;;;;;;;10.35;2.67;;;;;;;12.07;83.23;101207.09;6014597;28;20046;-67
2022/06/13 02:57:23;;;;;;;9.23;2.80;;;;;;;12.08;83.39;101202.63;6024891;28;20617;-67
2022/06/13 03:00:19;;;;;;;6.30;2.22;;;;;;;12.07;82.75;101215.06;6013255;28;20034;-66
2022/06/13 03:03:23;;;;;;;11.43;3.03;;;;;;;12.27;81.91;101198.09;6020099;28;20030;-67
2022/06/13 03:06:24;;;;;;;7.20;2.83;;;;;;;12.40;81.59;101205.75;6023329;28;20031;-67
2022/06/13 03:09:51;;;;;;;9.23;3.10;;;;;;;12.07;82.30;101198.28;6026257;28;20035;-67
2022/06/13 03:13:07;;;;;;;9.73;3.17;;;;;;;12.74;81.65;101187.41;6021959;28;20589;-67
2022/06/13 03:16:11;;;;;;;11.70;3.00;;;;;;;12.24;81.62;101192.22;6025933;28;20027;-67
2022/06/13 03:19:16;;;;;;;10.40;2.72;;;;;;;12.11;82.03;101202.34;6025569;28;20379;-67
2022/06/13 03:22:16;;;;;;;11.07;2.72;;;;;;;12.39;81.38;101202.22;6022973;28;20034;-67
2022/06/13 03:25:22;;;;;;;8.60;2.83;;;;;;;13.17;80.70;101186.72;6026875;28;20088;-67
2022/06/13 03:28:39;;;;;;;8.95;2.72;;;;;;;13.30;81.13;101187.19;6040471;28;20042;-67
2022/06/13 03:31:39;;;;;;;9.25;2.42;;;;;;;13.62;80.66;101182.16;6024691;28;20042;-67
2022/06/13 03:34:39;;;;;;;9.07;2.55;;;;;;;13.20;79.76;101197.94;6027791;28;20509;-67
2022/06/13 03:37:42;;;;;;;12.88;2.88;;;;;;;12.99;80.42;101194.69;6033826;28;20038;-68
2022/06/13 03:40:40;;;;;;;10.50;2.78;;;;;;;13.06;82.15;101206.41;6043668;28;20038;-67
2022/06/13 03:43:58;;;;;;;10.48;2.85;;;;;;;12.93;79.94;101204.09;6029922;28;20057;-67
2022/06/13 03:46:57;;;;;;;5.97;2.67;;;;;;;12.70;81.33;101213.44;6029739;28;20034;-67
2022/06/13 03:50:12;;;;;;;8.93;3.28;;;;;;;12.83;81.44;101221.94;6028972;28;20492;-67
2022/06/13 03:53:44;;;;;;;7.22;2.25;;;;;;;12.84;80.91;101230.75;6026428;28;20394;-66
2022/06/13 03:56:47;;;;;;;10.27;3.08;;;;;;;12.80;81.09;101222.22;6021426;28;20038;-66
2022/06/13 03:59:53;;;;;;;7.07;2.47;;;;;;;12.76;80.80;101236.81;6023579;28;20046;-66
2022/06/13 04:02:50;;;;;;;9.38;2.97;;;;;;;12.64;80.85;101231.84;6029104;28;20045;-67
2022/06/13 04:06:01;;;;;;;8.90;2.60;;;;;;;12.62;81.52;101239.97;6028618;28;20528;-67
2022/06/13 04:08:58;;;;;;;6.55;2.42;;;;;;;12.59;82.07;101240.25;6040102;28;20089;-67
2022/06/13 04:12:50;;;;;;;8.98;2.50;;;;;;;12.62;82.15;101241.78;6015714;28;20057;-67
2022/06/13 04:16:14;;;;;;;6.85;2.20;;;;;;;12.74;82.15;101244.13;5980383;28;20043;-67
2022/06/13 04:19:32;;;;;;;12.80;3.55;;;;;;;12.97;81.81;101245.41;6025920;28;20056;-66
2022/06/13 04:22:42;;;;;;;8.32;2.38;;;;;;;13.52;79.79;101230.22;6042867;28;20038;-66
2022/06/13 04:25:53;;;;;;;9.23;2.50;;;;;;;14.32;76.31;101208.69;6028670;28;20049;-66
2022/06/13 04:28:56;;;;;;;8.73;2.50;;;;;;;14.68;74.44;101220.03;6026993;28;20061;-66
2022/06/13 04:31:54;;;;;;;8.35;2.70;;;;;;;15.05;72.68;101211.69;6027064;28;20038;-66
2022/06/13 04:34:51;;;;;;;8.20;2.28;;;;;;;15.16;72.08;101200.69;6026291;28;20390;-67
2022/06/13 04:37:47;;;;;;;4.95;2.30;;;;;;;15.45;71.05;101198.41;6019862;28;20037;-66
2022/06/13 04:40:47;;;;;;;5.72;2.10;;;;;;;15.11;72.06;101184.28;6029447;28;20038;-67
2022/06/13 04:43:45;;;;;;;16.67;2.72;;;;;;;14.95;71.20;101176.25;6029238;28;20050;-67
2022/06/13 04:46:41;;;;;;;7.45;2.55;;;;;;;14.58;73.06;101178.47;6027010;28;20552;-67
2022/06/13 04:49:53;;;;;;;12.13;2.63;;;;;;;14.40;73.40;101188.38;6037549;28;20065;-67
2022/06/13 04:52:49;;;;;;;8.43;2.60;;;;;;;14.32;75.14;101182.00;6037490;28;20137;-67
2022/06/13 04:55:47;;;;;;;9.77;2.85;;;;;;;14.36;74.62;101195.03;6028199;28;20604;-66
2022/06/13 04:58:42;;;;;;;14.48;2.80;;;;;;;14.14;75.59;101193.69;6027282;28;20038;-67
2022/06/13 05:01:44;;;;;;;7.22;2.60;;;;;;;14.14;76.13;101194.53;6027663;28;20065;-67
2022/06/13 05:04:40;;;;;;;8.07;2.55;;;;;;;14.07;76.20;101200.66;6036468;28;20037;-67
2022/06/13 05:07:35;;;;;;;11.50;2.90;;;;;;;14.01;77.50;101199.47;6030589;28;20390;-67
2022/06/13 05:10:32;;;;;;;8.32;2.97;;;;;;;14.06;77.03;101205.16;6030348;28;20045;-67
2022/06/13 05:13:27;;;;;;;7.72;2.85;;;;;;;14.21;77.97;101211.56;6043226;28;20033;-67
2022/06/13 05:16:40;;;;;;;9.03;2.60;;;;;;;14.33;77.90;101220.19;6026695;28;20069;-66
2022/06/13 05:20:07;;;;;;;10.95;2.80;;;;;;;14.56;77.20;101220.50;6027314;28;20281;-67
2022/06/13 05:23:23;;;;;;;10.52;2.50;;;;;;;14.49;77.29;101235.44;6020603;28;20034;-67
2022/06/13 05:26:20;;;;;;;7.18;2.80;;;;;;;14.68;76.87;101224.53;6051043;28;20054;-67
2022/06/13 05:29:16;;;;;;;10.60;2.88;;;;;;;14.93;75.55;101229.00;6030547;28;20050;-67
2022/06/13 05:32:12;;;;;;;8.80;2.60;;;;;;;14.90;74.96;101218.63;6029486;28;20041;-66
2022/06/13 05:35:31;;;;;;;9.63;2.67;;;;;;;14.79;75.19;101202.91;6039140;28;20033;-67
2022/06/13 05:38:31;;;;;;;12.45;2.80;;;;;;;14.66;75.67;101197.19;6043049;28;20402;-67
2022/06/13 05:41:26;;;;;;;22.95;5.05;;;;;;;14.88;75.71;101216.13;6025268;28;20508;-67
2022/06/13 05:44:21;;;;;;;12.18;2.70;;;;;;;15.13;74.12;101209.03;6027133;28;20038;-67
2022/06/13 05:47:19;;;;;;;10.27;2.80;;;;;;;15.35;73.85;101228.97;6028229;28;20048;-66
2022/06/13 05:50:17;;;;;;;8.32;2.95;;;;;;;15.25;74.07;101215.72;6023731;28;20026;-67
2022/06/13 05:53:15;;;;;;;7.70;2.58;;;;;;;15.41;74.21;101218.44;6022464;28;20121;-67
2022/06/13 05:56:11;;;;;;;7.22;2.50;;;;;;;15.41;74.27;101220.25;6020106;28;20121;-66
2022/06/13 05:59:07;;;;;;;7.18;2.72;;;;;;;15.64;73.48;101212.47;6022063;28;20378;-67
2022/06/13 06:02:02;;;;;;;9.88;2.65;;;;;;;15.98;72.51;101213.16;6015550;28;20038;-67
2022/06/13 06:04:57;;;;;;;9.60;2.72;;;;;;;16.03;70.36;101218.81;6026782;28;20054;-67
2022/06/13 06:07:53;;;;;;;8.80;2.40;;;;;;;16.13;69.39;101238.22;6025507;28;20050;-67
2022/06/13 06:10:50;;;;;;;8.90;2.20;;;;;;;16.18;69.95;101238.53;6024105;28;20145;-66
2022/06/13 06:13:45;;;;;;;9.27;2.78;;;;;;;16.11;69.47;101240.22;6021158;28;20043;-67
2022/06/13 06:16:41;;;;;;;13.57;2.67;;;;;;;16.52;68.39;101231.09;6021343;28;20026;-67
2022/06/13 06:19:36;;;;;;;9.33;3.03;;;;;;;16.35;69.24;101237.50;6026363;28;20270;-66
2022/06/13 06:22:31;;;;;;;9.90;2.20;;;;;;;16.29;67.49;101235.50;6014971;28;20476;-66
2022/06/13 06:25:26;;;;;;;6.87;1.97;;;;;;;16.37;67.49;101243.53;6024772;28;20034;-67
2022/06/13 06:28:25;;;;;;;7.77;2.40;;;;;;;16.41;67.45;101233.31;6032533;28;20045;-66
2022/06/13 06:31:21;;;;;;;11.95;2.58;;;;;;;16.89;65.41;101235.00;6019335;28;20034;-67
2022/06/13 06:34:16;;;;;;;8.23;2.53;;;;;;;17.39;62.49;101235.44;6026194;28;20109;-66
2022/06/13 06:37:11;;;;;;;10.93;2.80;;;;;;;17.10;62.87;101233.41;6035918;28;20432;-66
2022/06/13 06:40:07;;;;;;;6.33;1.90;;;;;;;17.01;63.27;101250.53;6021342;28;20281;-67
2022/06/13 06:43:03;;;;;;;8.23;2.33;;;;;;;16.88;64.25;101252.09;6021845;28;20038;-66
2022/06/13 06:45:58;;;;;;;6.27;1.90;;;;;;;16.89;63.86;101251.94;6031374;28;20029;-66
2022/06/13 06:48:53;;;;;;;8.33;2.20;;;;;;;16.53;63.74;101234.63;6049219;28;20393;-66
2022/06/13 06:51:49;;;;;;;8.77;2.10;;;;;;;16.77;63.68;101249.81;6026935;28;20286;-66
2022/06/13 07:01:14;;;;;;;8.60;2.17;;;;;;;17.30;64.17;101247.22;6024257;28;20034;-66
2022/06/13 07:04:09;;;;;;;12.07;2.40;;;;;;;17.54;62.33;101236.34;6024952;28;20451;-67
2022/06/13 07:07:04;;;;;;;11.43;2.80;;;;;;;17.28;62.52;101241.19;6025464;28;20042;-66
2022/06/13 07:09:59;;;;;;;7.70;2.00;;;;;;;17.32;60.97;101237.13;6030681;28;20089;-66
2022/06/13 07:12:55;;;;;;;9.77;2.50;;;;;;;17.27;62.10;101243.03;6030688;28;20045;-67
2022/06/13 07:15:50;;;;;;;13.03;2.27;;;;;;;17.53;62.41;101236.50;6030643;28;20380;-66
2022/06/13 07:18:46;;;;;;;6.85;2.30;;;;;;;17.42;61.36;101235.03;6030720;28;20027;-67
2022/06/13 07:21:41;;;;;;;6.93;2.33;;;;;;;17.83;60.51;101233.78;6028747;28;20041;-66
2022/06/13 07:24:37;;;;;;;9.30;2.42;;;;;;;17.83;61.66;101238.31;6030655;28;20688;-66
2022/06/13 07:27:32;;;;;;;9.77;3.10;;;;;;;18.03;59.37;101238.66;6029922;28;20129;-66
2022/06/13 07:30:29;;;;;;;7.87;2.47;;;;;;;18.07;59.71;101229.22;6028990;28;20315;-65
2022/06/13 07:33:24;;;;;;;7.80;2.35;;;;;;;18.62;58.83;101224.28;6028694;28;20030;-64
2022/06/13 07:36:20;;;;;;;6.70;2.10;;;;;;;18.22;57.63;101230.06;6029490;28;20035;-65
2022/06/13 07:39:16;;;;;;;5.30;2.43;;;;;;;17.85;60.46;101236.28;6037167;28;20543;-65
2022/06/13 07:42:14;;;;;;;9.65;2.20;;;;;;;17.22;60.68;101228.50;6029511;28;20134;-66
2022/06/13 07:45:16;;;;;;;10.43;2.70;;;;;;;16.82;62.59;101232.22;6030015;28;20038;-65
2022/06/13 07:48:11;;;;;;;8.40;2.88;;;;;;;16.69;62.90;101244.47;6030119;28;20031;-67
2022/06/13 07:51:08;;;;;;;7.17;2.30;;;;;;;16.76;63.04;101242.78;6034150;28;20045;-65
2022/06/13 07:54:03;;;;;;;8.93;2.60;;;;;;;17.56;61.20;101246.88;6037180;28;20030;-65
2022/06/13 07:56:58;;;;;;;8.07;2.30;;;;;;;18.40;58.00;101247.50;6029813;28;20041;-65
2022/06/13 07:59:54;;;;;;;7.20;3.70;;;;;;;18.88;56.02;101246.16;6029987;28;20066;-65
2022/06/13 08:02:49;;;;;;;6.37;2.70;;;;;;;19.02;54.51;101242.59;6029187;28;20478;-65
2022/06/13 08:05:44;;;;;;;5.72;2.25;;;;;;;18.37;55.26;101239.00;6029623;28;20113;-65
2022/06/13 08:08:40;;;;;;;10.47;3.20;;;;;;;18.15;58.46;101247.94;6029680;28;20031;-65
2022/06/13 08:11:46;;;;;;;11.57;2.20;;;;;;;18.17;58.94;101248.59;6028731;28;20261;-65
2022/06/13 08:14:47;;;;;;;10.23;3.03;;;;;;;18.83;55.81;101243.19;6028562;28;20042;-65
2022/06/13 08:17:42;;;;;;;8.00;2.33;;;;;;;18.54;56.30;101236.97;6029477;28;20050;-66
2022/06/13 08:20:39;;;;;;;10.90;2.65;;;;;;;18.78;54.22;101240.22;6032814;28;20030;-65
2022/06/13 08:23:34;;;;;;;6.25;1.90;;;;;;;18.96;53.39;101231.78;6033496;28;20088;-65
2022/06/13 08:26:29;;;;;;;8.50;3.13;;;;;;;19.14;53.76;101240.28;6028929;28;20031;-65
2022/06/13 08:29:25;;;;;;;9.43;2.77;;;;;;;19.10;53.64;101236.31;6029138;28;20053;-66
2022/06/13 08:32:20;;;;;;;9.68;2.42;;;;;;;18.67;54.24;101229.94;6027502;28;20030;-65
2022/06/13 08:35:15;;;;;;;8.85;2.78;;;;;;;18.67;55.19;101238.00;6029007;28;20663;-65
2022/06/13 08:38:11;;;;;;;10.20;2.47;;;;;;;19.41;53.05;101236.91;6035439;28;20108;-66
2022/06/13 08:41:19;;;;;;;5.87;2.00;;;;;;;20.31;50.67;101241.66;6047621;28;20365;-66
2022/06/13 08:44:42;;;;;;;8.10;1.98;;;;;;;20.77;49.42;101229.31;6027778;28;20269;-65
2022/06/13 08:47:44;;;;;;;6.97;1.80;;;;;;;20.77;44.16;101235.53;6028682;28;20126;-65
2022/06/13 08:50:49;;;;;;;9.43;2.05;;;;;;;19.72;47.33;101230.38;6028091;28;20042;-65
2022/06/13 08:53:56;;;;;;;6.82;2.00;;;;;;;19.14;48.75;101242.97;6026374;28;20030;-65
2022/06/13 08:56:52;;;;;;;7.90;2.00;;;;;;;18.84;49.38;101241.34;6028264;28;20398;-65
2022/06/13 08:59:55;;;;;;;5.78;1.77;;;;;;;18.70;50.30;101236.78;6027928;28;20457;-65
2022/06/13 09:03:04;;;;;;;5.45;1.75;;;;;;;18.29;51.90;101244.47;6029352;28;20049;-65
2022/06/13 09:06:03;;;;;;;8.43;1.80;;;;;;;17.83;53.79;101249.03;6038373;28;20080;-65
2022/06/13 09:09:04;;;;;;;7.55;2.42;;;;;;;17.51;54.28;101250.09;6032096;28;20037;-65
2022/06/13 09:12:11;;;;;;;6.43;2.15;;;;;;;17.54;53.94;101255.13;6026526;28;20034;-65
2022/06/13 09:15:14;;;;;;;6.88;2.00;;;;;;;18.26;53.63;101252.88;6042418;28;20561;-65
2022/06/13 09:18:19;;;;;;;8.95;1.90;;;;;;;19.14;50.77;101240.28;6021922;28;20177;-65
2022/06/13 09:21:19;;;;;;;6.32;3.28;;;;;;;20.11;48.68;101245.00;6022652;28;20039;-66
2022/06/13 09:24:24;;;;;;;4.63;1.63;;;;;;;19.93;48.41;101227.66;6026811;28;20041;-66
2022/06/13 09:27:24;;;;;;;4.68;1.52;;;;;;;19.56;48.44;101235.00;6024708;28;20061;-65
2022/06/13 09:30:24;;;;;;;7.75;1.70;;;;;;;19.94;48.46;101234.72;6026683;28;20089;-65
2022/06/13 09:33:46;;;;;;;7.88;2.00;;;;;;;20.47;44.99;101234.09;6021613;28;20470;-66
2022/06/13 09:37:05;;;;;;;7.18;1.60;;;;;;;20.27;46.15;101238.53;6021377;28;20070;-66
2022/06/13 09:40:00;;;;;;;5.30;1.98;;;;;;;19.70;46.55;101235.13;6013524;28;20072;-65
2022/06/13 09:43:16;;;;;;;7.53;2.15;;;;;;;19.17;47.52;101237.22;6021558;28;20038;-65
2022/06/13 09:46:25;;;;;;;3.88;1.52;;;;;;;18.96;48.69;101239.84;6024355;28;20482;-65
2022/06/13 09:49:38;;;;;;;7.70;1.42;;;;;;;18.46;47.22;101237.88;6019989;28;20118;-65
2022/06/13 09:52:36;;;;;;;;;;;;;;;19.23;47.53;101239.16;6008665;28;20037;-65
2022/06/13 09:55:44;;;;;;;6.68;1.85;;;;;;;20.34;45.89;101235.88;6020268;28;20346;-65
2022/06/13 09:59:00;;;;;;;5.15;1.30;;;;;;;20.66;44.09;101232.56;6035804;28;20053;-65
2022/06/13 10:02:04;;;;;;;9.07;1.58;;;;;;;19.98;45.44;101230.59;6020177;28;20042;-65
2022/06/13 10:05:12;;;;;;;6.47;2.10;;;;;;;19.25;48.28;101237.09;6025615;28;20482;-66
2022/06/13 10:08:17;;;;;;;14.40;2.80;;;;;;;17.23;67.75;101279.22;6025185;28;20458;-69
2022/06/13 10:11:22;;;;;;;8.27;2.92;;;;;;;15.06;77.51;101287.28;6036524;28;20125;-66
2022/06/13 10:14:23;;;;;;;7.25;2.33;;;;;;;14.27;82.04;101280.31;6025039;28;20065;-68
2022/06/13 10:17:34;;;;;;;9.90;2.58;;;;;;;14.18;83.91;101270.59;6017429;28;20046;-65
2022/06/13 10:20:52;;;;;;;7.30;2.08;;;;;;;14.35;85.67;101278.75;6022545;28;20100;-64
2022/06/13 10:23:56;;;;;;;6.45;1.90;;;;;;;14.42;83.71;101269.13;6026333;28;20040;-64
2022/06/13 10:27:16;;;;;;;10.50;2.53;;;;;;;14.85;82.24;101274.34;6024788;28;20036;-64
2022/06/13 10:30:19;;;;;;;8.70;2.20;;;;;;;15.86;82.79;101270.66;6025461;28;20033;-65
2022/06/13 10:33:41;;;;;;;5.65;1.77;;;;;;;15.99;73.87;101303.94;6012873;28;20120;-66
2022/06/13 10:36:50;;;;;;;4.70;1.50;;;;;;;14.65;71.40;101296.94;6022917;28;20553;-65
2022/06/13 10:39:49;;;;;;;4.30;1.40;;;;;;;13.37;77.39;101308.97;6026181;28;20061;-64
2022/06/13 10:42:45;;;;;;;3.67;1.30;;;;;;;13.09;78.49;101304.66;6043334;28;20382;-65
2022/06/13 10:45:42;;;;;;;2.60;1.25;;;;;;;13.24;80.18;101310.31;6034016;28;20038;-65
2022/06/13 10:48:43;;;;;;;4.22;1.40;;;;;;;13.57;79.36;101302.53;6016799;28;20031;-65
2022/06/13 10:51:40;;;;;;;2.75;1.10;;;;;;;13.84;81.48;101298.13;6020906;28;20085;-64
2022/06/13 10:54:39;;;;;;;3.20;1.30;;;;;;;13.98;77.57;101313.59;6026538;28;20030;-64
2022/06/13 10:57:41;;;;;;;3.10;1.40;;;;;;;14.43;78.80;101305.50;6016674;28;20530;-64
2022/06/13 11:00:37;;;;;;;2.90;1.20;;;;;;;14.60;74.96;101316.09;6018591;28;20561;-64
2022/06/13 11:03:32;;;;;;;6.18;1.40;;;;;;;14.86;75.88;101316.94;6025415;28;20036;-64
2022/06/13 11:06:37;;;;;;;3.78;1.25;;;;;;;15.37;73.95;101321.34;6024429;28;20035;-64
2022/06/13 11:09:39;;;;;;;4.05;1.35;;;;;;;16.05;70.38;101307.78;6024769;28;20513;-65
2022/06/13 11:12:38;;;;;;;5.22;1.50;;;;;;;16.70;68.58;101307.75;6023563;28;20437;-65
2022/06/13 11:22:38;;;;;;;3.47;1.13;;;;;;;17.72;63.18;101303.13;6022614;28;20031;-65
2022/06/13 11:25:34;;;;;;;4.25;1.45;;;;;;;17.89;60.61;101306.53;6023037;28;20049;-65
2022/06/13 11:28:38;;;;;;;4.93;1.33;;;;;;;17.78;60.15;101305.94;6022706;28;20449;-65
2022/06/13 11:31:33;;;;;;;7.22;1.75;;;;;;;17.38;61.32;101319.56;6016540;28;20038;-65
2022/06/13 11:34:32;;;;;;;4.13;1.40;;;;;;;16.46;66.21;101330.84;6025895;28;20493;-65
2022/06/13 11:37:28;;;;;;;4.03;1.30;;;;;;;15.71;69.20;101296.38;6020528;28;20084;-65
2022/06/13 11:40:24;;;;;;;6.47;1.43;;;;;;;15.94;76.44;101316.13;6042739;28;20046;-64
2022/06/13 11:43:30;;;;;;;2.80;1.10;;;;;;;16.24;71.06;101334.22;6047151;28;20042;-67
2022/06/13 11:46:30;;;;;;;2.80;1.20;;;;;;;17.14;68.64;101335.75;6027514;28;20030;-67
2022/06/13 11:49:33;;;;;;;5.72;1.17;;;;;;;17.18;61.99;101342.41;6025382;28;20037;-67
2022/06/13 11:55:54;;;;;;;4.55;1.30;;;;;;;17.23;64.01;101351.63;6028835;28;20041;-65
2022/06/13 11:58:51;;;;;;;3.80;1.00;;;;;;;17.04;62.73;101345.84;6036782;28;20047;-65
2022/06/13 12:01:56;;;;;;;3.60;1.20;;;;;;;17.27;63.02;101354.78;6029297;28;20076;-65
2022/06/13 12:04:54;;;;;;;7.32;1.88;;;;;;;16.96;62.02;101367.31;6028506;28;20109;-65
2022/06/13 12:08:14;;;;;;;4.50;1.63;;;;;;;16.71;63.50;101373.72;6029298;28;20034;-66
2022/06/13 12:11:09;;;;;;;;;;;;;;;16.30;66.94;101392.44;6050363;28;20091;-65
2022/06/13 12:14:07;;;;;;;3.70;1.48;;;;;;;15.48;72.26;101406.63;6037868;28;19944;-65
2022/06/13 12:17:19;;;;;;;4.25;1.63;;;;;;;14.59;77.85;101417.72;6019282;28;20417;-64
2022/06/13 12:20:45;;;;;;;5.28;1.90;;;;;;;13.38;84.60;101429.69;6021496;28;20041;-66
2022/06/13 12:23:48;;;;;;;3.70;1.98;;;;;;;12.76;88.88;101412.47;6018443;28;20042;-67
2022/06/13 12:26:52;;;;;;;5.15;2.30;;;;;;;12.72;91.28;101404.94;6028010;28;20026;-67
2022/06/13 12:29:53;;;;;;;8.15;2.15;;;;;;;12.64;92.20;101410.13;6040130;28;20026;-66
2022/06/13 12:33:16;;;;;;;5.82;1.85;;;;;;;12.63;92.13;101395.97;6027117;28;20030;-66
2022/06/13 12:36:28;;;;;;;4.95;1.75;;;;;;;12.91;92.53;101389.72;6038716;28;20031;-66
2022/06/13 12:39:41;;;;;;;8.00;1.63;;;;;;;13.51;91.96;101387.56;6028787;28;20116;-66
2022/06/13 12:42:49;;;;;;;4.57;1.42;;;;;;;13.89;89.56;101367.84;6039110;28;20042;-66
2022/06/13 12:45:52;;;;;;;7.03;1.63;;;;;;;14.55;87.86;101374.47;6027382;28;20042;-65
2022/06/13 12:49:23;;;;;;;4.45;1.50;;;;;;;15.61;85.65;101355.34;6027455;28;20026;-65
2022/06/13 12:52:51;;;;;;;2.67;1.17;;;;;;;15.57;78.80;101358.53;6027285;28;20970;-65
2022/06/13 12:56:04;;;;;;;2.85;1.20;;;;;;;15.92;78.01;101344.91;6023420;28;20094;-65
2022/06/13 12:59:11;;;;;;;2.83;1.10;;;;;;;17.03;80.39;101349.53;6022227;28;20049;-65
2022/06/13 13:02:19;;;;;;;1.88;0.98;;;;;;;17.38;72.38;101341.00;6026285;28;20042;-66
2022/06/13 13:05:34;;;;;;;2.03;1.10;;;;;;;18.03;71.05;101335.28;6026713;28;20105;-66
2022/06/13 13:08:45;;;;;;;2.65;1.05;;;;;;;18.35;70.03;101345.75;6022500;28;20042;-65
2022/06/13 13:11:46;;;;;;;2.08;0.88;;;;;;;18.47;67.67;101338.94;6023019;28;20548;-66
2022/06/13 13:15:00;;;;;;;2.38;0.95;;;;;;;18.46;68.22;101331.88;6038856;28;20405;-66
2022/06/13 13:18:33;;;;;;;2.95;1.00;;;;;;;17.87;66.51;101343.44;6026292;28;20053;-66
2022/06/13 13:21:54;;;;;;;3.83;1.00;;;;;;;18.01;67.40;101331.94;6025840;28;20030;-66
2022/06/13 13:25:01;;;;;;;2.38;1.20;;;;;;;17.75;65.91;101337.63;6027875;28;20045;-66
2022/06/13 13:28:28;;;;;;;3.47;1.50;;;;;;;18.47;64.04;101333.56;6019682;28;20034;-66
2022/06/13 13:31:36;;;;;;;3.55;1.30;;;;;;;19.39;64.34;101330.41;6031215;28;20065;-66
2022/06/13 13:35:05;;;;;;;5.03;1.60;;;;;;;19.62;58.11;101329.44;6026020;28;20097;-66
2022/06/13 13:38:27;;;;;;;4.65;1.77;;;;;;;19.17;59.48;101325.09;6023224;28;20034;-66
2022/06/13 13:41:27;;;;;;;3.33;1.58;;;;;;;19.65;59.58;101324.50;6021803;28;20054;-66
2022/06/13 13:44:29;;;;;;;4.18;1.25;;;;;;;19.80;56.69;101327.97;6026990;28;20038;-66
2022/06/13 13:47:24;;;;;;;3.50;1.20;;;;;;;19.88;55.30;101322.47;6027699;28;20127;-66
2022/06/13 13:50:26;;;;;;;3.27;1.20;;;;;;;19.70;56.97;101324.78;6025330;28;20540;-65
2022/06/13 13:53:23;;;;;;;5.35;1.30;;;;;;;20.02;56.51;101335.06;6026966;28;20692;-66
2022/06/13 13:56:31;;;;;;;3.78;0.95;;;;;;;19.83;55.17;101332.16;6021647;28;20038;-66
2022/06/13 13:59:30;;;;;;;3.17;1.02;;;;;;;19.32;55.12;101328.63;6025897;28;20057;-66
2022/06/13 14:02:45;;;;;;;4.38;0.90;;;;;;;18.79;55.76;101341.34;6021643;28;20050;-66
2022/06/13 14:05:56;;;;;;;2.40;0.93;;;;;;;18.52;55.01;101346.47;6023470;28;20394;-66
2022/06/13 14:08:53;;;;;;;1.48;0.68;;;;;;;18.33;54.24;101343.25;6023820;28;20030;-66
2022/06/13 14:12:08;;;;;;;3.47;0.63;;;;;;;17.73;54.14;101343.19;6024157;28;20042;-66
2022/06/13 14:15:08;;;;;;;3.22;1.10;;;;;;;17.60;55.19;101342.94;6019944;28;20050;-66
2022/06/13 14:18:14;;;;;;;2.88;0.80;;;;;;;17.95;55.70;101338.00;6024093;28;20046;-66
2022/06/13 14:21:41;;;;;;;2.35;0.60;;;;;;;18.87;51.69;101329.66;6022889;28;20409;-66
2022/06/13 14:24:45;;;;;;;2.60;0.65;;;;;;;19.47;49.75;101333.00;6004496;28;20046;-66
2022/06/13 14:28:19;;;;;;;2.92;0.82;;;;;;;19.72;47.35;101336.19;6025752;28;20042;-66
2022/06/13 14:31:15;;;;;;;2.17;0.60;;;;;;;19.05;48.02;101337.38;5978098;28;20098;-66
2022/06/13 14:37:24;;;;;;;3.42;0.80;;;;;;;17.80;52.33;101344.16;6022092;28;20038;-66